Santa Margarita, California
Current Conditions -  °F | °C
As of 9:14 AM on Friday 31 Oct 2014 (Local Time) from KSBP Reporting Station
Broken Clouds Broken Clouds  
Wind Chill: 63°   Ceiling: 4600
Heat Index: 63°   Visibility: 10mi
Dew Point: 56°   Wind: 7mph
Humidity: 78%   Direction: 210°SSW
Pressure: 29.96"   Gusts: NA
Location:  35.39°N, 120.61°W
Report Text: KSBP 311614Z 21006KT 10SM SCT037 BKN046 17/13 A2996 RMK AO2 T01720133
Loading
Personal Weather Stations






























Interactive Weather Map
Tropical Storm Tracking
New forecast layout! Learn more

10-Day Weather Forecast

Advertisements
Track Severe Weather on mobile